Terminal Aerodrome Forecast
Issued by NWS

Home | Current Version | Previous Version | Graphics & Text | Print | Product List | Glossary On
Versions: 1 2 3 4 5 6 7 8 9 10 11 12 13 14 15 16 17 18 19 20 21 22 23 24
000
FTUS43 KGRB 142300
TAFCWA
TAF
KCWA 142338Z 1500/1524 13003KT 1/4SM FG VV002
     FM151200 15004KT 1/4SM FG OVC004
     FM151500 16006KT 1/2SM FG OVC008
     FM151800 15007KT 3SM BR OVC018
      TEMPO 1518/1522 2SM -RA BR OVC015
     FM152200 12004KT 2SM -RA BR OVC012
      AMD LTD TO CLD VIS AND WIND 1503/1511=

USA.gov is the U.S. government's official web portal to all federal, state and local government web resources and services.